الكل
Bath Community Hospital Airport (Hot Springs, VA) 47VG حالة الطقس
There is no TAF data available at 47VG or any nearby airports.
There is no METAR data available at 47VG. Showing METAR data for KHSP (3 mi جنوب).
محفوظات أحدث تقرير روتيني عن حالة الطقس من أجل الطيران (الميتار) HSP ( لا توجد بيانات لـ47VG)
| Date | Time (EDT) | Flight Rules | Wind Dir. | Speed | Type | Height AGL (ft) | Visibility | Temp (°C) | Temp (°F) | Dew Point (°C) | Dew Point (°F) | Rel. Humid. | Pressure | Density Altitude | Remarks |
|---|---|---|---|---|---|---|---|---|---|---|---|---|---|---|---|
| 01-سبت | 21:55 | VFR | 290° | 7 kt | 10 miles | 22° | 71° | 19° | 66° | 83% | 30.25 in Hg | 5,015 ft | |||
| 01-سبت | 21:35 | VFR | 280° | 6 kt | 10 miles | 22° | 71° | 19° | 66° | 83% | 30.25 in Hg | 5,015 ft | |||
| 01-سبت | 21:15 | VFR | 280° | 8 kt | 10 miles | 22° | 71° | 19° | 66° | 83% | 30.25 in Hg | 5,015 ft | Wind gusting to 15 KT | ||
| 01-سبت | 20:55 | VFR | 280° | 10 kt | 10 miles | 23° | 73° | 19° | 66° | 82% | 30.24 in Hg | 5,145 ft | |||
| 01-سبت | 20:15 | VFR | 270° | 9 kt | 10 miles | 23° | 73° | 19° | 66° | 79% | 30.22 in Hg | 5,165 ft | |||
| 01-سبت | 19:55 | VFR | 270° | 11 kt | 10 miles | 23° | 73° | 19° | 66° | 75% | 30.22 in Hg | 5,165 ft | |||
| 01-سبت | 19:35 | VFR | 270° | 7 kt | 10 miles | 24° | 75° | 19° | 66° | 73% | 30.23 in Hg | 5,275 ft | |||
| 01-سبت | 19:15 | VFR | 260° | 7 kt | 10 miles | 24° | 75° | 19° | 66° | 75% | 30.23 in Hg | 5,275 ft | |||
| 01-سبت | 18:55 | VFR | 260° | 6 kt | 10 miles | 24° | 75° | 19° | 66° | 74% | 30.24 in Hg | 5,265 ft | |||
| 01-سبت | 18:35 | VFR | 260° | 5 kt | 10 miles | 25° | 77° | 19° | 66° | 72% | 30.24 in Hg | 5,385 ft | |||
| 01-سبت | 18:15 | VFR | 270° | 4 kt | 10 miles | 25° | 77° | 19° | 66° | 69% | 30.24 in Hg | 5,385 ft | |||
| 01-سبت | 17:55 | VFR | 300° | 4 kt | 10 miles | 26° | 78° | 20° | 68° | 69% | 30.24 in Hg | 5,505 ft | |||
| 01-سبت | 17:35 | VFR | 270° | 3 kt | 10 miles | 26° | 78° | 19° | 66° | 69% | 30.25 in Hg | 5,495 ft | |||
| 01-سبت | 17:15 | VFR | 280° | 6 kt | 10 miles | 25° | 77° | 19° | 66° | 68% | 30.25 in Hg | 5,375 ft | |||
| 01-سبت | 16:55 | VFR | 280° | 6 kt | 10 miles | 26° | 78° | 19° | 66° | 67% | 30.25 in Hg | 5,495 ft | |||
| 01-سبت | 16:35 | VFR | 280° | 8 kt | 10 miles | 26° | 78° | 19° | 66° | 63% | 30.25 in Hg | 5,495 ft | |||
| 01-سبت | 16:15 | VFR | 310° | 4 kt | 10 miles | 26° | 78° | 18° | 64° | 60% | 30.25 in Hg | 5,495 ft | |||
| 01-سبت | 15:55 | VFR | 310° | 5 kt | 10 miles | 27° | 80° | 18° | 64° | 61% | 30.25 in Hg | 5,615 ft | Wind gusting to 15 KT | ||
| 01-سبت | 15:35 | VFR | 310° | 11 kt | 10 miles | 26° | 78° | 18° | 64° | 60% | 30.26 in Hg | 5,485 ft | Wind gusting to 16 KT | ||
| 01-سبت | 15:15 | VFR | 290° | 10 kt | 10 miles | 26° | 78° | 19° | 66° | 63% | 30.26 in Hg | 5,485 ft | Wind gusting to 14 KT | ||
| 01-سبت | 14:55 | VFR | 290° | 9 kt | 10 miles | 27° | 80° | 19° | 66° | 65% | 30.27 in Hg | 5,595 ft | |||
| 01-سبت | 14:35 | VFR | 290° | 10 kt | 10 miles | 25° | 77° | 19° | 66° | 69% | 30.28 in Hg | 5,345 ft | Wind gusting to 15 KT | ||
| 01-سبت | 14:15 | VFR | 300° | 10 kt | 10 miles | 25° | 77° | 20° | 68° | 71% | 30.28 in Hg | 5,345 ft | Wind gusting to 14 KT | ||
| 01-سبت | 13:55 | VFR | 280° | 8 kt | 10 miles | 25° | 77° | 20° | 68° | 75% | 30.28 in Hg | 5,345 ft |
تسجيل الدخول
| مُتصفحك غير مُدعَّم. قم بترقية متصفحك |
